sensor_id;sensor_type;location;lat;lon;timestamp;P1;durP1;ratioP1;P2;durP2;ratioP2
27684;SDS011;46113;50.130;8.526;2022-12-19T05:17:27;38.20;;;14.93;;
27684;SDS011;46113;50.130;8.526;2022-12-19T05:19:54;34.80;;;15.60;;
27684;SDS011;46113;50.130;8.526;2022-12-19T05:22:21;42.17;;;16.98;;
27684;SDS011;46113;50.130;8.526;2022-12-19T05:24:48;28.25;;;15.00;;
27684;SDS011;46113;50.130;8.526;2022-12-19T05:27:14;46.22;;;18.50;;
27684;SDS011;46113;50.130;8.526;2022-12-19T05:29:41;41.17;;;17.33;;
27684;SDS011;46113;50.130;8.526;2022-12-19T05:32:07;38.10;;;16.10;;
27684;SDS011;46113;50.130;8.526;2022-12-19T05:34:34;33.58;;;16.60;;
27684;SDS011;46113;50.130;8.526;2022-12-19T05:37:13;30.90;;;14.57;;
27684;SDS011;46113;50.130;8.526;2022-12-19T05:39:39;32.95;;;14.82;;
27684;SDS011;46113;50.130;8.526;2022-12-19T05:42:06;36.33;;;17.10;;
27684;SDS011;46113;50.130;8.526;2022-12-19T05:44:37;33.40;;;16.40;;
27684;SDS011;46113;50.130;8.526;2022-12-19T05:47:04;41.25;;;18.00;;
27684;SDS011;46113;50.130;8.526;2022-12-19T05:52:03;31.05;;;15.50;;
27684;SDS011;46113;50.130;8.526;2022-12-19T05:54:30;33.63;;;15.32;;
27684;SDS011;46113;50.130;8.526;2022-12-19T05:56:56;31.83;;;15.70;;
27684;SDS011;46113;50.130;8.526;2022-12-19T05:59:24;27.52;;;13.63;;
27684;SDS011;46113;50.130;8.526;2022-12-19T06:01:52;35.47;;;16.35;;
27684;SDS011;46113;50.130;8.526;2022-12-19T06:07:12;40.88;;;15.15;;
27684;SDS011;46113;50.130;8.526;2022-12-19T06:09:46;32.38;;;16.00;;
27684;SDS011;46113;50.130;8.526;2022-12-19T06:12:12;33.20;;;15.43;;
27684;SDS011;46113;50.130;8.526;2022-12-19T06:14:39;34.92;;;15.35;;
27684;SDS011;46113;50.130;8.526;2022-12-19T06:17:05;30.75;;;15.88;;
27684;SDS011;46113;50.130;8.526;2022-12-19T06:19:32;36.30;;;15.90;;
27684;SDS011;46113;50.130;8.526;2022-12-19T06:21:58;35.45;;;17.08;;
27684;SDS011;46113;50.130;8.526;2022-12-19T06:24:25;32.00;;;16.17;;
27684;SDS011;46113;50.130;8.526;2022-12-19T06:26:51;30.70;;;15.80;;
27684;SDS011;46113;50.130;8.526;2022-12-19T06:29:19;38.67;;;15.57;;
27684;SDS011;46113;50.130;8.526;2022-12-19T06:31:45;35.40;;;16.13;;
27684;SDS011;46113;50.130;8.526;2022-12-19T06:34:12;36.83;;;16.13;;
27684;SDS011;46113;50.130;8.526;2022-12-19T06:36:59;35.67;;;16.10;;
27684;SDS011;46113;50.130;8.526;2022-12-19T06:39:33;36.85;;;15.52;;
27684;SDS011;46113;50.130;8.526;2022-12-19T06:41:59;34.63;;;15.48;;
27684;SDS011;46113;50.130;8.526;2022-12-19T06:44:45;34.35;;;15.75;;
27684;SDS011;46113;50.130;8.526;2022-12-19T06:47:12;34.67;;;15.50;;
27684;SDS011;46113;50.130;8.526;2022-12-19T06:49:39;33.08;;;15.73;;
27684;SDS011;46113;50.130;8.526;2022-12-19T06:52:06;36.60;;;15.20;;
27684;SDS011;46113;50.130;8.526;2022-12-19T06:54:34;38.92;;;16.63;;
27684;SDS011;46113;50.130;8.526;2022-12-19T06:57:01;35.75;;;15.95;;
27684;SDS011;46113;50.130;8.526;2022-12-19T06:59:27;33.10;;;16.77;;
27684;SDS011;46113;50.130;8.526;2022-12-19T07:01:59;38.45;;;16.27;;
27684;SDS011;46113;50.130;8.526;2022-12-19T07:04:49;34.60;;;16.77;;
27684;SDS011;46113;50.130;8.526;2022-12-19T07:07:19;33.90;;;16.98;;
27684;SDS011;46113;50.130;8.526;2022-12-19T07:10:02;33.15;;;15.57;;
27684;SDS011;46113;50.130;8.526;2022-12-19T07:12:33;35.78;;;16.35;;
27684;SDS011;46113;50.130;8.526;2022-12-19T07:15:03;35.00;;;16.60;;
27684;SDS011;46113;50.130;8.526;2022-12-19T07:17:30;39.08;;;17.83;;
27684;SDS011;46113;50.130;8.526;2022-12-19T07:20:06;36.33;;;17.08;;
27684;SDS011;46113;50.130;8.526;2022-12-19T07:25:38;32.78;;;16.50;;
27684;SDS011;46113;50.130;8.526;2022-12-19T07:28:06;37.25;;;17.77;;
27684;SDS011;46113;50.130;8.526;2022-12-19T07:30:34;35.25;;;16.95;;
27684;SDS011;46113;50.130;8.526;2022-12-19T07:33:02;30.63;;;15.82;;
27684;SDS011;46113;50.130;8.526;2022-12-19T07:35:29;34.65;;;18.55;;
27684;SDS011;46113;50.130;8.526;2022-12-19T07:38:00;32.40;;;15.93;;
27684;SDS011;46113;50.130;8.526;2022-12-19T07:40:33;38.03;;;17.10;;
27684;SDS011;46113;50.130;8.526;2022-12-19T07:43:03;38.17;;;16.10;;
27684;SDS011;46113;50.130;8.526;2022-12-19T07:45:32;34.53;;;15.13;;
27684;SDS011;46113;50.130;8.526;2022-12-19T07:48:02;37.60;;;16.33;;
27684;SDS011;46113;50.130;8.526;2022-12-19T07:50:30;38.00;;;17.10;;
27684;SDS011;46113;50.130;8.526;2022-12-19T07:52:57;36.88;;;16.58;;
27684;SDS011;46113;50.130;8.526;2022-12-19T07:55:24;43.00;;;18.05;;
27684;SDS011;46113;50.130;8.526;2022-12-19T07:57:51;36.15;;;16.33;;
27684;SDS011;46113;50.130;8.526;2022-12-19T08:00:20;40.42;;;17.25;;
27684;SDS011;46113;50.130;8.526;2022-12-19T08:05:44;34.50;;;16.20;;
27684;SDS011;46113;50.130;8.526;2022-12-19T08:11:11;39.38;;;18.08;;
27684;SDS011;46113;50.130;8.526;2022-12-19T08:13:40;38.38;;;19.27;;
27684;SDS011;46113;50.130;8.526;2022-12-19T08:16:12;38.25;;;17.85;;
27684;SDS011;46113;50.130;8.526;2022-12-19T08:18:44;40.08;;;18.65;;
27684;SDS011;46113;50.130;8.526;2022-12-19T08:21:11;35.88;;;17.10;;
27684;SDS011;46113;50.130;8.526;2022-12-19T08:23:39;40.55;;;17.10;;
27684;SDS011;46113;50.130;8.526;2022-12-19T08:26:07;40.08;;;17.13;;
27684;SDS011;46113;50.130;8.526;2022-12-19T08:28:37;41.42;;;16.92;;
27684;SDS011;46113;50.130;8.526;2022-12-19T08:31:06;31.85;;;16.38;;
27684;SDS011;46113;50.130;8.526;2022-12-19T08:33:34;40.40;;;17.77;;
27684;SDS011;46113;50.130;8.526;2022-12-19T08:36:03;38.17;;;19.15;;
27684;SDS011;46113;50.130;8.526;2022-12-19T08:38:30;36.53;;;17.25;;
27684;SDS011;46113;50.130;8.526;2022-12-19T08:40:57;39.38;;;17.40;;
27684;SDS011;46113;50.130;8.526;2022-12-19T08:43:23;38.10;;;17.80;;
27684;SDS011;46113;50.130;8.526;2022-12-19T08:45:51;40.97;;;17.73;;
27684;SDS011;46113;50.130;8.526;2022-12-19T08:48:23;37.90;;;17.02;;
27684;SDS011;46113;50.130;8.526;2022-12-19T08:50:50;42.15;;;19.30;;
27684;SDS011;46113;50.130;8.526;2022-12-19T08:53:23;40.53;;;18.48;;
27684;SDS011;46113;50.130;8.526;2022-12-19T08:56:03;35.80;;;17.10;;
27684;SDS011;46113;50.130;8.526;2022-12-19T09:01:16;37.00;;;18.00;;
27684;SDS011;46113;50.130;8.526;2022-12-19T09:03:45;38.90;;;16.38;;
27684;SDS011;46113;50.130;8.526;2022-12-19T09:06:32;40.15;;;17.70;;
27684;SDS011;46113;50.130;8.526;2022-12-19T09:09:16;32.88;;;17.02;;
27684;SDS011;46113;50.130;8.526;2022-12-19T09:15:00;34.83;;;16.63;;
27684;SDS011;46113;50.130;8.526;2022-12-19T09:17:27;40.42;;;18.25;;
27684;SDS011;46113;50.130;8.526;2022-12-19T09:19:54;42.05;;;17.98;;
27684;SDS011;46113;50.130;8.526;2022-12-19T09:22:21;39.38;;;18.42;;
27684;SDS011;46113;50.130;8.526;2022-12-19T09:24:54;39.03;;;17.75;;
27684;SDS011;46113;50.130;8.526;2022-12-19T09:27:27;41.10;;;18.30;;
27684;SDS011;46113;50.130;8.526;2022-12-19T09:29:53;40.72;;;19.08;;
27684;SDS011;46113;50.130;8.526;2022-12-19T09:32:20;39.80;;;18.08;;
27684;SDS011;46113;50.130;8.526;2022-12-19T09:40:29;39.08;;;17.80;;
27684;SDS011;46113;50.130;8.526;2022-12-19T09:46:18;35.67;;;17.63;;
27684;SDS011;46113;50.130;8.526;2022-12-19T09:48:46;37.53;;;18.63;;
27684;SDS011;46113;50.130;8.526;2022-12-19T09:54:19;39.53;;;16.88;;
27684;SDS011;46113;50.130;8.526;2022-12-19T09:56:50;39.78;;;18.55;;
27684;SDS011;46113;50.130;8.526;2022-12-19T09:59:30;35.03;;;17.15;;
27684;SDS011;46113;50.130;8.526;2022-12-19T10:05:01;36.90;;;17.75;;
27684;SDS011;46113;50.130;8.526;2022-12-19T10:07:59;42.42;;;18.42;;
27684;SDS011;46113;50.130;8.526;2022-12-19T10:16:06;40.75;;;17.90;;
27684;SDS011;46113;50.130;8.526;2022-12-19T10:18:48;39.15;;;18.05;;
27684;SDS011;46113;50.130;8.526;2022-12-19T10:24:54;33.25;;;16.15;;
27684;SDS011;46113;50.130;8.526;2022-12-19T10:27:49;42.70;;;17.65;;
27684;SDS011;46113;50.130;8.526;2022-12-19T10:30:25;36.55;;;17.63;;
27684;SDS011;46113;50.130;8.526;2022-12-19T10:35:34;38.58;;;17.83;;
27684;SDS011;46113;50.130;8.526;2022-12-19T10:40:41;47.55;;;18.48;;
27684;SDS011;46113;50.130;8.526;2022-12-19T10:43:55;34.60;;;17.02;;
27684;SDS011;46113;50.130;8.526;2022-12-19T10:46:22;41.53;;;17.88;;
27684;SDS011;46113;50.130;8.526;2022-12-19T10:52:44;40.63;;;18.50;;
27684;SDS011;46113;50.130;8.526;2022-12-19T10:55:41;36.78;;;17.77;;
27684;SDS011;46113;50.130;8.526;2022-12-19T10:58:25;33.92;;;18.30;;
27684;SDS011;46113;50.130;8.526;2022-12-19T11:03:37;42.00;;;17.00;;
27684;SDS011;46113;50.130;8.526;2022-12-19T11:06:37;34.03;;;17.25;;
27684;SDS011;46113;50.130;8.526;2022-12-19T11:09:14;40.95;;;17.55;;
27684;SDS011;46113;50.130;8.526;2022-12-19T11:11:47;43.17;;;19.92;;
27684;SDS011;46113;50.130;8.526;2022-12-19T11:14:42;42.05;;;18.13;;
27684;SDS011;46113;50.130;8.526;2022-12-19T11:17:35;48.25;;;18.85;;
27684;SDS011;46113;50.130;8.526;2022-12-19T11:20:24;41.22;;;18.48;;
27684;SDS011;46113;50.130;8.526;2022-12-19T11:26:02;36.42;;;18.00;;
27684;SDS011;46113;50.130;8.526;2022-12-19T11:28:53;45.10;;;19.20;;
27684;SDS011;46113;50.130;8.526;2022-12-19T11:31:47;40.50;;;18.02;;
27684;SDS011;46113;50.130;8.526;2022-12-19T11:34:38;38.08;;;17.05;;
27684;SDS011;46113;50.130;8.526;2022-12-19T11:37:17;51.42;;;19.52;;
27684;SDS011;46113;50.130;8.526;2022-12-19T11:40:30;32.60;;;16.38;;
27684;SDS011;46113;50.130;8.526;2022-12-19T11:49:36;41.33;;;17.52;;
27684;SDS011;46113;50.130;8.526;2022-12-19T11:58:46;40.45;;;18.00;;
27684;SDS011;46113;50.130;8.526;2022-12-19T12:07:18;53.33;;;18.17;;
27684;SDS011;46113;50.130;8.526;2022-12-19T12:13:33;37.60;;;16.95;;
27684;SDS011;46113;50.130;8.526;2022-12-19T12:35:05;37.67;;;16.85;;
27684;SDS011;46113;50.130;8.526;2022-12-19T12:38:16;35.17;;;16.23;;
27684;SDS011;46113;50.130;8.526;2022-12-19T12:45:26;44.05;;;18.27;;
27684;SDS011;46113;50.130;8.526;2022-12-19T12:50:55;34.58;;;17.23;;
27684;SDS011;46113;50.130;8.526;2022-12-19T12:53:32;38.00;;;19.00;;
27684;SDS011;46113;50.130;8.526;2022-12-19T13:00:35;34.75;;;17.10;;
27684;SDS011;46113;50.130;8.526;2022-12-19T13:14:47;48.50;;;21.83;;
27684;SDS011;46113;50.130;8.526;2022-12-19T13:24:12;45.72;;;20.30;;
27684;SDS011;46113;50.130;8.526;2022-12-19T13:34:32;42.83;;;19.65;;
27684;SDS011;46113;50.130;8.526;2022-12-19T13:44:46;39.30;;;18.88;;
27684;SDS011;46113;50.130;8.526;2022-12-19T13:48:01;41.30;;;19.77;;
27684;SDS011;46113;50.130;8.526;2022-12-19T13:51:04;41.63;;;20.10;;
27684;SDS011;46113;50.130;8.526;2022-12-19T13:53:53;46.88;;;19.77;;
27684;SDS011;46113;50.130;8.526;2022-12-19T14:00:20;36.30;;;19.10;;
27684;SDS011;46113;50.130;8.526;2022-12-19T14:03:15;43.10;;;20.73;;
27684;SDS011;46113;50.130;8.526;2022-12-19T14:06:23;41.28;;;19.30;;
27684;SDS011;46113;50.130;8.526;2022-12-19T14:20:18;41.20;;;19.17;;
27684;SDS011;46113;50.130;8.526;2022-12-19T14:24:17;37.45;;;20.08;;
27684;SDS011;46113;50.130;8.526;2022-12-19T14:27:12;35.00;;;17.88;;
27684;SDS011;46113;50.130;8.526;2022-12-19T14:30:28;34.35;;;18.38;;
27684;SDS011;46113;50.130;8.526;2022-12-19T14:33:09;37.08;;;19.15;;
27684;SDS011;46113;50.130;8.526;2022-12-19T14:36:22;34.03;;;18.60;;
27684;SDS011;46113;50.130;8.526;2022-12-19T14:39:01;38.63;;;18.92;;
27684;SDS011;46113;50.130;8.526;2022-12-19T14:42:31;47.85;;;20.77;;
27684;SDS011;46113;50.130;8.526;2022-12-19T14:49:32;39.42;;;18.65;;
27684;SDS011;46113;50.130;8.526;2022-12-19T14:52:41;43.33;;;20.52;;
27684;SDS011;46113;50.130;8.526;2022-12-19T14:55:44;38.08;;;19.92;;
27684;SDS011;46113;50.130;8.526;2022-12-19T14:58:44;40.20;;;20.45;;
27684;SDS011;46113;50.130;8.526;2022-12-19T15:01:29;46.22;;;21.20;;
27684;SDS011;46113;50.130;8.526;2022-12-19T15:07:20;41.70;;;20.77;;
27684;SDS011;46113;50.130;8.526;2022-12-19T15:10:07;43.05;;;21.13;;
27684;SDS011;46113;50.130;8.526;2022-12-19T15:13:23;42.85;;;20.15;;
27684;SDS011;46113;50.130;8.526;2022-12-19T15:19:23;47.13;;;20.90;;
27684;SDS011;46113;50.130;8.526;2022-12-19T15:24:47;36.58;;;19.15;;
27684;SDS011;46113;50.130;8.526;2022-12-19T15:27:14;46.08;;;20.65;;
27684;SDS011;46113;50.130;8.526;2022-12-19T15:39:02;36.75;;;19.83;;
27684;SDS011;46113;50.130;8.526;2022-12-19T15:44:33;44.58;;;20.23;;
27684;SDS011;46113;50.130;8.526;2022-12-19T15:49:45;53.17;;;23.73;;
27684;SDS011;46113;50.130;8.526;2022-12-19T15:52:16;49.70;;;24.70;;
27684;SDS011;46113;50.130;8.526;2022-12-19T15:54:44;42.33;;;21.02;;
27684;SDS011;46113;50.130;8.526;2022-12-19T16:00:01;46.10;;;20.90;;
27684;SDS011;46113;50.130;8.526;2022-12-19T16:02:33;42.38;;;21.13;;
27684;SDS011;46113;50.130;8.526;2022-12-19T16:05:21;47.15;;;23.38;;
27684;SDS011;46113;50.130;8.526;2022-12-19T16:07:51;45.35;;;23.90;;
27684;SDS011;46113;50.130;8.526;2022-12-19T16:13:56;56.55;;;23.50;;
27684;SDS011;46113;50.130;8.526;2022-12-19T16:16:26;36.28;;;20.58;;
27684;SDS011;46113;50.130;8.526;2022-12-19T16:18:54;55.10;;;23.75;;
27684;SDS011;46113;50.130;8.526;2022-12-19T16:21:22;47.08;;;22.52;;
27684;SDS011;46113;50.130;8.526;2022-12-19T16:23:59;45.35;;;22.95;;
27684;SDS011;46113;50.130;8.526;2022-12-19T16:30:47;41.58;;;22.40;;
27684;SDS011;46113;50.130;8.526;2022-12-19T16:33:20;42.55;;;20.63;;
27684;SDS011;46113;50.130;8.526;2022-12-19T16:35:56;45.05;;;22.58;;
27684;SDS011;46113;50.130;8.526;2022-12-19T16:38:38;49.75;;;23.27;;
27684;SDS011;46113;50.130;8.526;2022-12-19T16:41:05;47.33;;;23.63;;
27684;SDS011;46113;50.130;8.526;2022-12-19T16:43:39;47.30;;;22.73;;
27684;SDS011;46113;50.130;8.526;2022-12-19T16:46:11;47.20;;;23.15;;
27684;SDS011;46113;50.130;8.526;2022-12-19T16:49:01;44.58;;;23.13;;
27684;SDS011;46113;50.130;8.526;2022-12-19T16:51:39;42.13;;;22.33;;
27684;SDS011;46113;50.130;8.526;2022-12-19T16:54:26;42.60;;;20.63;;
27684;SDS011;46113;50.130;8.526;2022-12-19T16:57:18;46.00;;;20.52;;
27684;SDS011;46113;50.130;8.526;2022-12-19T17:06:14;44.60;;;22.42;;
27684;SDS011;46113;50.130;8.526;2022-12-19T17:08:49;42.42;;;21.10;;
27684;SDS011;46113;50.130;8.526;2022-12-19T17:11:47;38.88;;;21.30;;
27684;SDS011;46113;50.130;8.526;2022-12-19T17:14:35;44.30;;;21.35;;
27684;SDS011;46113;50.130;8.526;2022-12-19T17:17:05;43.78;;;21.33;;
27684;SDS011;46113;50.130;8.526;2022-12-19T17:20:05;45.70;;;19.70;;
27684;SDS011;46113;50.130;8.526;2022-12-19T17:22:38;41.13;;;21.73;;
27684;SDS011;46113;50.130;8.526;2022-12-19T17:25:15;44.38;;;21.80;;
27684;SDS011;46113;50.130;8.526;2022-12-19T17:27:45;60.13;;;22.80;;
27684;SDS011;46113;50.130;8.526;2022-12-19T17:30:13;45.72;;;24.13;;
27684;SDS011;46113;50.130;8.526;2022-12-19T17:32:40;48.20;;;24.70;;
27684;SDS011;46113;50.130;8.526;2022-12-19T17:35:15;52.30;;;22.05;;
27684;SDS011;46113;50.130;8.526;2022-12-19T17:40:21;40.35;;;20.58;;
27684;SDS011;46113;50.130;8.526;2022-12-19T17:42:48;50.83;;;22.60;;
27684;SDS011;46113;50.130;8.526;2022-12-19T17:45:19;39.83;;;21.83;;
27684;SDS011;46113;50.130;8.526;2022-12-19T17:47:47;47.83;;;21.98;;
27684;SDS011;46113;50.130;8.526;2022-12-19T17:50:22;50.05;;;23.75;;
27684;SDS011;46113;50.130;8.526;2022-12-19T17:52:50;46.97;;;24.70;;
27684;SDS011;46113;50.130;8.526;2022-12-19T17:55:21;73.03;;;34.05;;
27684;SDS011;46113;50.130;8.526;2022-12-19T17:57:49;49.15;;;25.20;;
27684;SDS011;46113;50.130;8.526;2022-12-19T18:00:17;48.85;;;25.05;;
27684;SDS011;46113;50.130;8.526;2022-12-19T18:03:00;47.90;;;23.05;;
27684;SDS011;46113;50.130;8.526;2022-12-19T18:05:32;44.65;;;21.38;;
27684;SDS011;46113;50.130;8.526;2022-12-19T18:08:05;50.97;;;23.50;;
27684;SDS011;46113;50.130;8.526;2022-12-19T18:10:47;41.10;;;22.43;;
27684;SDS011;46113;50.130;8.526;2022-12-19T18:14:23;46.40;;;21.65;;
27684;SDS011;46113;50.130;8.526;2022-12-19T18:16:53;51.92;;;23.80;;
27684;SDS011;46113;50.130;8.526;2022-12-19T18:20:13;44.15;;;22.38;;
27684;SDS011;46113;50.130;8.526;2022-12-19T18:22:46;40.40;;;21.58;;
27684;SDS011;46113;50.130;8.526;2022-12-19T18:25:27;43.80;;;22.40;;
27684;SDS011;46113;50.130;8.526;2022-12-19T18:27:56;45.08;;;23.25;;
27684;SDS011;46113;50.130;8.526;2022-12-19T18:34:53;51.25;;;22.60;;
27684;SDS011;46113;50.130;8.526;2022-12-19T18:37:23;39.83;;;22.10;;
27684;SDS011;46113;50.130;8.526;2022-12-19T18:39:52;48.08;;;20.80;;
27684;SDS011;46113;50.130;8.526;2022-12-19T18:42:20;49.10;;;21.42;;
27684;SDS011;46113;50.130;8.526;2022-12-19T18:44:48;52.83;;;24.65;;
27684;SDS011;46113;50.130;8.526;2022-12-19T18:47:21;45.38;;;24.35;;
27684;SDS011;46113;50.130;8.526;2022-12-19T18:53:11;44.95;;;25.50;;
27684;SDS011;46113;50.130;8.526;2022-12-19T18:55:43;55.40;;;25.50;;
27684;SDS011;46113;50.130;8.526;2022-12-19T18:58:16;61.60;;;25.98;;
27684;SDS011;46113;50.130;8.526;2022-12-19T19:00:54;54.40;;;26.92;;
27684;SDS011;46113;50.130;8.526;2022-12-19T19:03:27;46.92;;;25.77;;
27684;SDS011;46113;50.130;8.526;2022-12-19T19:09:01;82.18;;;29.70;;
27684;SDS011;46113;50.130;8.526;2022-12-19T19:11:48;72.88;;;27.17;;
27684;SDS011;46113;50.130;8.526;2022-12-19T19:14:15;82.63;;;28.90;;
27684;SDS011;46113;50.130;8.526;2022-12-19T19:16:41;64.00;;;26.15;;
27684;SDS011;46113;50.130;8.526;2022-12-19T19:19:09;74.07;;;28.10;;
27684;SDS011;46113;50.130;8.526;2022-12-19T19:21:39;68.07;;;29.15;;
27684;SDS011;46113;50.130;8.526;2022-12-19T19:29:34;46.33;;;24.23;;
27684;SDS011;46113;50.130;8.526;2022-12-19T19:32:02;59.30;;;28.15;;
27684;SDS011;46113;50.130;8.526;2022-12-19T19:34:30;52.50;;;24.63;;
27684;SDS011;46113;50.130;8.526;2022-12-19T19:37:01;48.00;;;23.73;;
27684;SDS011;46113;50.130;8.526;2022-12-19T19:39:32;52.13;;;23.90;;
27684;SDS011;46113;50.130;8.526;2022-12-19T19:44:54;49.25;;;23.83;;
27684;SDS011;46113;50.130;8.526;2022-12-19T19:47:24;46.80;;;25.10;;
27684;SDS011;46113;50.130;8.526;2022-12-19T19:49:54;48.60;;;22.63;;
27684;SDS011;46113;50.130;8.526;2022-12-19T19:52:21;47.05;;;23.20;;
27684;SDS011;46113;50.130;8.526;2022-12-19T19:54:48;59.28;;;24.92;;
27684;SDS011;46113;50.130;8.526;2022-12-19T19:57:15;60.58;;;26.05;;
27684;SDS011;46113;50.130;8.526;2022-12-19T19:59:41;56.00;;;25.27;;
27684;SDS011;46113;50.130;8.526;2022-12-19T20:02:08;64.85;;;31.45;;
27684;SDS011;46113;50.130;8.526;2022-12-19T20:04:37;52.13;;;24.92;;
27684;SDS011;46113;50.130;8.526;2022-12-19T20:07:11;52.58;;;25.15;;
27684;SDS011;46113;50.130;8.526;2022-12-19T20:09:38;53.10;;;25.58;;
27684;SDS011;46113;50.130;8.526;2022-12-19T20:12:05;51.45;;;24.13;;
27684;SDS011;46113;50.130;8.526;2022-12-19T20:14:34;49.08;;;23.27;;
27684;SDS011;46113;50.130;8.526;2022-12-19T20:17:08;51.35;;;24.85;;
27684;SDS011;46113;50.130;8.526;2022-12-19T20:19:36;41.60;;;23.45;;
27684;SDS011;46113;50.130;8.526;2022-12-19T20:22:06;43.55;;;23.33;;
27684;SDS011;46113;50.130;8.526;2022-12-19T20:24:33;43.55;;;22.95;;
27684;SDS011;46113;50.130;8.526;2022-12-19T20:27:36;46.13;;;23.42;;
27684;SDS011;46113;50.130;8.526;2022-12-19T20:30:22;51.03;;;24.90;;
27684;SDS011;46113;50.130;8.526;2022-12-19T20:33:04;47.22;;;22.88;;
27684;SDS011;46113;50.130;8.526;2022-12-19T20:35:56;53.58;;;23.92;;
27684;SDS011;46113;50.130;8.526;2022-12-19T20:39:12;47.83;;;22.42;;
27684;SDS011;46113;50.130;8.526;2022-12-19T20:42:14;42.75;;;21.13;;
27684;SDS011;46113;50.130;8.526;2022-12-19T20:45:01;40.20;;;21.42;;
27684;SDS011;46113;50.130;8.526;2022-12-19T20:47:32;43.67;;;20.60;;
27684;SDS011;46113;50.130;8.526;2022-12-19T20:49:59;47.35;;;22.35;;
27684;SDS011;46113;50.130;8.526;2022-12-19T20:52:30;48.97;;;21.42;;
27684;SDS011;46113;50.130;8.526;2022-12-19T20:55:18;43.60;;;21.48;;
27684;SDS011;46113;50.130;8.526;2022-12-19T20:57:53;39.28;;;20.50;;
27684;SDS011;46113;50.130;8.526;2022-12-19T21:00:20;40.22;;;20.65;;
27684;SDS011;46113;50.130;8.526;2022-12-19T21:02:49;44.60;;;22.20;;
27684;SDS011;46113;50.130;8.526;2022-12-19T21:05:36;44.15;;;22.10;;
27684;SDS011;46113;50.130;8.526;2022-12-19T21:08:19;49.92;;;21.30;;
27684;SDS011;46113;50.130;8.526;2022-12-19T21:10:47;40.90;;;21.83;;
27684;SDS011;46113;50.130;8.526;2022-12-19T21:13:16;40.88;;;20.42;;
27684;SDS011;46113;50.130;8.526;2022-12-19T21:15:54;40.55;;;21.10;;
27684;SDS011;46113;50.130;8.526;2022-12-19T21:22:55;45.45;;;21.70;;
27684;SDS011;46113;50.130;8.526;2022-12-19T21:25:22;47.42;;;20.85;;
27684;SDS011;46113;50.130;8.526;2022-12-19T21:27:48;39.20;;;20.17;;
27684;SDS011;46113;50.130;8.526;2022-12-19T21:30:15;50.85;;;24.85;;
27684;SDS011;46113;50.130;8.526;2022-12-19T21:32:42;51.53;;;25.48;;
27684;SDS011;46113;50.130;8.526;2022-12-19T21:35:09;48.05;;;22.50;;
27684;SDS011;46113;50.130;8.526;2022-12-19T21:37:35;49.55;;;25.13;;
27684;SDS011;46113;50.130;8.526;2022-12-19T21:40:09;45.15;;;22.10;;
27684;SDS011;46113;50.130;8.526;2022-12-19T21:42:36;39.90;;;20.52;;
27684;SDS011;46113;50.130;8.526;2022-12-19T21:47:32;36.33;;;18.73;;
27684;SDS011;46113;50.130;8.526;2022-12-19T21:49:59;37.85;;;19.83;;
27684;SDS011;46113;50.130;8.526;2022-12-19T21:52:25;37.17;;;18.65;;
27684;SDS011;46113;50.130;8.526;2022-12-19T21:54:52;31.42;;;16.98;;
27684;SDS011;46113;50.130;8.526;2022-12-19T21:57:18;32.42;;;17.42;;
27684;SDS011;46113;50.130;8.526;2022-12-19T21:59:44;33.65;;;17.65;;
27684;SDS011;46113;50.130;8.526;2022-12-19T22:02:11;34.08;;;17.48;;
27684;SDS011;46113;50.130;8.526;2022-12-19T22:04:38;33.80;;;17.85;;
27684;SDS011;46113;50.130;8.526;2022-12-19T22:07:04;27.58;;;16.67;;
27684;SDS011;46113;50.130;8.526;2022-12-19T22:09:31;31.15;;;17.52;;
27684;SDS011;46113;50.130;8.526;2022-12-19T22:11:57;30.30;;;17.05;;
27684;SDS011;46113;50.130;8.526;2022-12-19T22:14:24;27.52;;;15.50;;
27684;SDS011;46113;50.130;8.526;2022-12-19T22:16:51;34.42;;;16.88;;
27684;SDS011;46113;50.130;8.526;2022-12-19T22:19:17;34.03;;;16.92;;
27684;SDS011;46113;50.130;8.526;2022-12-19T22:21:45;37.22;;;17.15;;
27684;SDS011;46113;50.130;8.526;2022-12-19T22:24:13;30.45;;;16.65;;
27684;SDS011;46113;50.130;8.526;2022-12-19T22:26:40;37.78;;;17.98;;
27684;SDS011;46113;50.130;8.526;2022-12-19T22:29:07;31.75;;;17.15;;
27684;SDS011;46113;50.130;8.526;2022-12-19T22:31:36;33.58;;;16.48;;
27684;SDS011;46113;50.130;8.526;2022-12-19T22:34:04;29.48;;;15.30;;
27684;SDS011;46113;50.130;8.526;2022-12-19T22:36:41;33.47;;;16.02;;
27684;SDS011;46113;50.130;8.526;2022-12-19T22:39:10;34.05;;;17.25;;
27684;SDS011;46113;50.130;8.526;2022-12-19T22:41:38;36.28;;;17.23;;
27684;SDS011;46113;50.130;8.526;2022-12-19T22:44:06;36.50;;;17.77;;
27684;SDS011;46113;50.130;8.526;2022-12-19T22:46:34;26.92;;;15.95;;
27684;SDS011;46113;50.130;8.526;2022-12-19T22:49:03;33.63;;;15.50;;
27684;SDS011;46113;50.130;8.526;2022-12-19T22:51:32;33.80;;;17.10;;
27684;SDS011;46113;50.130;8.526;2022-12-19T22:53:59;31.73;;;16.83;;
27684;SDS011;46113;50.130;8.526;2022-12-19T22:56:26;30.55;;;14.95;;
27684;SDS011;46113;50.130;8.526;2022-12-19T22:58:55;28.92;;;16.73;;
